Tichnor, Arkansas
Current Conditions -  °F | °C
As of 3:35 AM on Thursday 27 Nov 2014 (Local Time) from KSGT Reporting Station
Clear Clear  
Wind Chill: 29°   Ceiling: Unl
Heat Index: 37°   Visibility: 10mi
Dew Point: 27°   Wind: 15mph
Humidity: 65%   Direction: 330°NNW
Pressure: 30.38"   Gusts: NA
Location:  34.14°N, 91.27°W
Report Text: KSGT 270935Z AUTO 33013KT 10SM CLR 03/M03 A3038 RMK AO1
Loading
Personal Weather Stations






























Interactive Weather Map New forecast layout! Learn more

10-Day Weather Forecast

Advertisements
Track Severe Weather on mobile